createdAt,value
2023-01-11T00:00:09.645Z,5.25
2023-01-11T00:03:16.339Z,5.29
2023-01-11T00:06:19.123Z,5.22
2023-01-11T00:09:22.667Z,5.26
2023-01-11T00:12:25.366Z,5.29
2023-01-11T00:15:28.399Z,5.29
2023-01-11T00:18:31.309Z,5.23
2023-01-11T00:21:34.217Z,5.29
2023-01-11T00:24:37.169Z,5.28
2023-01-11T00:27:39.980Z,5.33
2023-01-11T00:30:42.674Z,5.35
2023-01-11T00:33:45.511Z,5.35
2023-01-11T00:36:48.399Z,5.36
2023-01-11T00:39:51.676Z,5.31
2023-01-11T00:43:13.022Z,5.31
2023-01-11T00:46:53.942Z,5.29
2023-01-11T00:49:56.714Z,5.22
2023-01-11T00:53:00.166Z,5.18
2023-01-11T00:56:03.044Z,5.09
2023-01-11T00:59:06.322Z,5.06
2023-01-11T01:02:11.226Z,5.04
2023-01-11T01:05:14.645Z,5.02
2023-01-11T01:08:17.596Z,4.97
2023-01-11T01:11:21.328Z,4.98
2023-01-11T01:14:26.850Z,4.93
2023-01-11T01:17:29.636Z,4.93
2023-01-11T01:20:32.327Z,4.89
2023-01-11T01:23:35.137Z,4.86
2023-01-11T01:26:37.961Z,4.84
2023-01-11T01:29:40.683Z,4.84
2023-01-11T01:32:43.529Z,4.80
2023-01-11T01:35:46.333Z,4.81
2023-01-11T01:38:49.352Z,4.78
2023-01-11T01:41:52.573Z,4.78
2023-01-11T01:45:07.398Z,4.76
2023-01-11T01:48:15.394Z,4.72
2023-01-11T01:51:23.271Z,4.71
2023-01-11T01:54:32.515Z,4.71
2023-01-11T01:57:37.899Z,4.66
2023-01-11T02:00:43.913Z,4.67
2023-01-11T02:03:48.389Z,4.66
2023-01-11T02:06:55.461Z,4.67
2023-01-11T02:10:10.779Z,4.61
2023-01-11T02:13:14.699Z,4.57
2023-01-11T02:16:17.508Z,4.52
2023-01-11T02:19:31.101Z,4.46
2023-01-11T02:23:11.428Z,4.44
2023-01-11T02:26:29.211Z,4.39
2023-01-11T02:29:42.983Z,4.38
2023-01-11T02:33:23.294Z,4.37
2023-01-11T02:36:48.470Z,4.31
2023-01-11T02:40:07.422Z,4.33
2023-01-11T02:43:38.477Z,4.33
2023-01-11T02:46:55.273Z,4.28
2023-01-11T02:50:16.336Z,4.23
2023-01-11T02:53:28.721Z,4.29
2023-01-11T02:56:37.395Z,4.33
2023-01-11T02:59:42.071Z,4.35
2023-01-11T03:02:44.916Z,4.32
2023-01-11T03:06:13.258Z,4.36
2023-01-11T03:09:43.531Z,4.37
2023-01-11T03:12:59.644Z,4.38
2023-01-11T03:16:43.903Z,4.37
2023-01-11T03:19:57.674Z,4.35
2023-01-11T03:23:22.175Z,4.31
2023-01-11T03:26:48.323Z,4.36
2023-01-11T03:30:32.902Z,4.35
2023-01-11T03:34:16.202Z,4.31
2023-01-11T03:37:45.767Z,4.33
2023-01-11T03:41:05.505Z,4.24
2023-01-11T03:44:11.581Z,4.21
2023-01-11T03:47:18.567Z,4.19
2023-01-11T03:50:22.653Z,4.13
2023-01-11T03:53:29.064Z,4.14
2023-01-11T03:57:07.115Z,4.17
2023-01-11T04:00:10.647Z,4.16
2023-01-11T04:03:15.096Z,4.17
2023-01-11T04:06:18.983Z,4.20
2023-01-11T04:09:21.690Z,4.22
2023-01-11T04:12:25.795Z,4.21
2023-01-11T04:15:30.357Z,4.27
2023-01-11T04:18:33.049Z,4.26
2023-01-11T04:21:35.880Z,4.27
2023-01-11T04:24:38.586Z,4.27
2023-01-11T04:27:41.259Z,4.24
2023-01-11T04:30:43.992Z,4.22
2023-01-11T04:33:46.789Z,4.19
2023-01-11T04:36:49.636Z,4.18
2023-01-11T04:39:52.274Z,4.17
2023-01-11T04:42:55.124Z,4.13
2023-01-11T04:46:00.987Z,4.08
2023-01-11T04:49:03.739Z,4.05
2023-01-11T04:52:06.736Z,4.04
2023-01-11T04:55:09.649Z,3.99
2023-01-11T04:58:13.244Z,3.93
2023-01-11T05:01:18.999Z,3.83
2023-01-11T05:04:21.954Z,3.83
2023-01-11T05:07:24.681Z,3.75
2023-01-11T05:10:27.598Z,3.78
2023-01-11T05:13:43.224Z,3.70
2023-01-11T05:16:46.017Z,3.70
2023-01-11T05:19:49.181Z,3.66
2023-01-11T05:22:52.127Z,3.69
2023-01-11T05:25:54.850Z,3.74
2023-01-11T05:29:01.282Z,3.67
2023-01-11T05:32:04.193Z,3.67
2023-01-11T05:35:10.249Z,3.64
2023-01-11T05:38:13.185Z,3.63
2023-01-11T05:41:17.217Z,3.67
2023-01-11T05:44:38.425Z,3.67
2023-01-11T05:47:41.230Z,3.69
2023-01-11T05:50:44.161Z,3.72
2023-01-11T05:53:46.963Z,3.74
2023-01-11T05:56:49.666Z,3.75
2023-01-11T05:59:52.509Z,3.78
2023-01-11T06:02:55.398Z,3.78
2023-01-11T06:05:59.625Z,3.82
2023-01-11T06:09:02.487Z,3.86
2023-01-11T06:12:06.096Z,3.86
2023-01-11T06:15:09.449Z,3.83
2023-01-11T06:18:12.387Z,3.86
2023-01-11T06:21:16.912Z,3.82
2023-01-11T06:24:19.789Z,3.85
2023-01-11T06:27:22.586Z,3.85
2023-01-11T06:30:28.704Z,3.87
2023-01-11T06:33:32.419Z,3.94
2023-01-11T06:36:37.167Z,3.92
2023-01-11T06:39:41.222Z,4.00
2023-01-11T06:42:44.262Z,4.03
2023-01-11T06:45:47.258Z,4.06
2023-01-11T06:48:50.284Z,4.07
2023-01-11T06:51:53.287Z,4.04
2023-01-11T06:54:56.285Z,4.08
2023-01-11T06:58:09.945Z,4.07
2023-01-11T07:01:18.235Z,4.02
2023-01-11T07:04:21.869Z,4.11
2023-01-11T07:07:27.068Z,4.09
2023-01-11T07:10:36.447Z,4.14
2023-01-11T07:13:40.559Z,4.17
2023-01-11T07:16:44.168Z,4.21
2023-01-11T07:19:47.317Z,4.14
2023-01-11T07:22:50.591Z,4.17
2023-01-11T07:25:56.353Z,4.16
2023-01-11T07:29:00.124Z,4.12
2023-01-11T07:32:04.982Z,4.15
2023-01-11T07:35:08.232Z,4.16
2023-01-11T07:38:11.997Z,4.19
2023-01-11T07:41:33.549Z,4.19
2023-01-11T07:44:36.612Z,4.22
2023-01-11T07:47:39.434Z,4.26
2023-01-11T07:50:44.738Z,4.37
2023-01-11T07:53:47.986Z,4.43
2023-01-11T07:56:51.534Z,4.42
2023-01-11T07:59:54.401Z,4.45
2023-01-11T08:02:57.800Z,4.46
2023-01-11T08:06:01.351Z,4.54
2023-01-11T08:09:06.264Z,4.54
2023-01-11T08:12:29.258Z,4.71
2023-01-11T08:15:38.495Z,4.65
2023-01-11T08:18:54.287Z,4.56
2023-01-11T08:21:59.109Z,4.69
2023-01-11T08:25:12.638Z,4.74
2023-01-11T08:28:21.531Z,4.82
2023-01-11T08:31:26.133Z,4.83
2023-01-11T08:34:29.427Z,4.93
2023-01-11T08:37:33.247Z,4.97
2023-01-11T08:40:36.851Z,5.08
2023-01-11T08:43:43.389Z,5.13
2023-01-11T08:46:46.323Z,5.35
2023-01-11T08:49:50.549Z,5.52
2023-01-11T08:52:53.426Z,5.91
2023-01-11T08:55:56.295Z,6.08
2023-01-11T08:58:59.260Z,6.27
2023-01-11T09:02:03.122Z,6.28
2023-01-11T09:05:06.882Z,6.42
2023-01-11T09:08:10.040Z,6.53
2023-01-11T09:11:33.158Z,6.49
2023-01-11T09:14:36.424Z,6.56
2023-01-11T09:17:39.533Z,6.68
2023-01-11T09:20:42.441Z,6.49
2023-01-11T09:23:45.849Z,6.72
2023-01-11T09:26:50.250Z,6.76
2023-01-11T09:29:55.119Z,6.75
2023-01-11T09:32:58.648Z,6.46
2023-01-11T09:36:03.230Z,6.16
2023-01-11T09:39:14.672Z,6.58
2023-01-11T09:42:24.549Z,6.65
2023-01-11T09:45:31.239Z,6.75
2023-01-11T09:48:43.537Z,6.71
2023-01-11T09:51:47.544Z,6.75
2023-01-11T09:54:51.758Z,6.60
2023-01-11T09:58:01.103Z,6.51
2023-01-11T10:01:19.890Z,6.49
2023-01-11T10:04:31.199Z,6.19
2023-01-11T10:18:23.667Z,6.74
2023-01-11T10:19:35.967Z,6.87
2023-01-11T10:22:45.259Z,7.07
2023-01-11T10:25:52.109Z,7.16
2023-01-11T10:29:16.703Z,7.22
2023-01-11T10:33:06.840Z,7.17
2023-01-11T10:36:35.280Z,7.14
2023-01-11T10:40:21.504Z,7.15
2023-01-11T10:43:27.007Z,6.80
2023-01-11T10:46:33.012Z,6.98
2023-01-11T10:49:43.737Z,7.16
2023-01-11T10:53:28.736Z,7.13
2023-01-11T10:57:02.668Z,7.04
2023-01-11T11:00:30.957Z,7.04
2023-01-11T11:03:43.483Z,7.10
2023-01-11T11:07:17.137Z,7.02
2023-01-11T11:10:22.915Z,7.10
2023-01-11T11:13:44.538Z,7.09
2023-01-11T11:17:21.559Z,7.07
2023-01-11T11:20:34.851Z,7.15
2023-01-11T11:23:42.034Z,7.16
2023-01-11T11:26:52.131Z,7.19
2023-01-11T11:29:57.305Z,7.25
2023-01-11T11:33:04.039Z,7.33
2023-01-11T11:36:11.394Z,7.55
2023-01-11T11:39:25.513Z,7.56
2023-01-11T11:42:30.537Z,7.57
2023-01-11T11:45:33.578Z,7.61
2023-01-11T11:48:37.578Z,7.70
2023-01-11T11:51:42.461Z,7.72
2023-01-11T11:54:58.206Z,7.80
2023-01-11T11:58:08.819Z,7.70
2023-01-11T12:01:29.194Z,7.64
2023-01-11T12:04:37.723Z,7.68
2023-01-11T12:07:54.672Z,7.46
2023-01-11T12:11:02.064Z,7.55
2023-01-11T12:14:13.847Z,7.66
2023-01-11T12:17:25.723Z,7.70
2023-01-11T12:20:34.533Z,7.55
2023-01-11T12:23:37.578Z,7.63
2023-01-11T12:26:45.795Z,7.67
2023-01-11T12:30:05.285Z,7.80
2023-01-11T12:33:38.964Z,7.91
2023-01-11T12:36:41.948Z,7.83
2023-01-11T12:40:15.781Z,7.81
2023-01-11T12:43:30.592Z,7.90
2023-01-11T12:47:05.699Z,7.74
2023-01-11T12:50:08.409Z,7.82
2023-01-11T12:53:20.447Z,7.89
2023-01-11T12:56:45.403Z,7.82
2023-01-11T13:00:35.594Z,7.79
2023-01-11T13:04:12.294Z,7.88
2023-01-11T13:07:39.293Z,7.93
2023-01-11T13:10:57.048Z,7.83
2023-01-11T13:14:22.285Z,7.85
2023-01-11T13:17:40.119Z,7.83
2023-01-11T13:21:02.558Z,7.98
2023-01-11T13:24:13.535Z,8.07
2023-01-11T13:27:22.679Z,8.07
2023-01-11T13:30:26.700Z,8.12
2023-01-11T13:33:33.952Z,8.18
2023-01-11T13:36:48.695Z,8.17
2023-01-11T13:40:04.313Z,8.20
2023-01-11T13:43:18.502Z,8.12
2023-01-11T13:46:33.372Z,8.39
2023-01-11T13:49:43.050Z,8.48
2023-01-11T13:52:55.041Z,8.52
2023-01-11T13:56:06.616Z,8.51
2023-01-11T13:59:13.535Z,8.41
2023-01-11T14:02:27.789Z,8.43
2023-01-11T14:05:40.762Z,8.50
2023-01-11T14:08:43.851Z,8.59
2023-01-11T14:11:49.289Z,8.65
2023-01-11T14:15:04.314Z,8.52
2023-01-11T14:18:16.850Z,8.42
2023-01-11T14:21:40.891Z,8.29
2023-01-11T14:24:59.357Z,8.10
2023-01-11T14:28:10.186Z,8.16
2023-01-11T14:31:20.718Z,8.13
2023-01-11T14:34:35.813Z,8.22
2023-01-11T14:37:47.376Z,8.18
2023-01-11T14:41:00.826Z,7.96
2023-01-11T14:44:03.631Z,7.94
2023-01-11T14:47:12.721Z,7.94
2023-01-11T14:50:33.583Z,7.82
2023-01-11T14:53:48.957Z,7.69
2023-01-11T14:56:55.221Z,7.59
2023-01-11T14:59:58.853Z,7.64
2023-01-11T15:03:01.883Z,7.71
2023-01-11T15:06:10.561Z,7.64
2023-01-11T15:09:43.980Z,7.59
2023-01-11T15:12:46.839Z,7.46
2023-01-11T15:16:09.894Z,7.41
2023-01-11T15:19:34.644Z,7.29
2023-01-11T15:22:38.240Z,7.19
2023-01-11T15:25:42.287Z,7.23
2023-01-11T15:28:49.929Z,7.28
2023-01-11T15:32:01.969Z,7.22
2023-01-11T15:35:33.468Z,7.14
2023-01-11T15:38:49.605Z,7.08
2023-01-11T15:42:15.389Z,7.13
2023-01-11T15:45:39.359Z,7.17
2023-01-11T15:48:42.112Z,7.02
2023-01-11T15:52:03.540Z,6.95
2023-01-11T15:55:49.470Z,6.99
2023-01-11T15:59:16.210Z,6.89
2023-01-11T16:03:11.879Z,6.88
2023-01-11T16:06:33.848Z,6.86
2023-01-11T16:10:11.617Z,6.83
2023-01-11T16:13:45.609Z,6.92
2023-01-11T16:16:52.872Z,6.95
2023-01-11T16:19:57.436Z,6.84
2023-01-11T16:23:03.486Z,6.73
2023-01-11T16:26:07.833Z,6.77
2023-01-11T16:29:18.445Z,6.83
2023-01-11T16:32:30.061Z,6.62
2023-01-11T16:35:32.870Z,6.69
2023-01-11T16:38:47.004Z,6.72
2023-01-11T16:42:00.745Z,6.65
2023-01-11T16:45:08.248Z,6.65
2023-01-11T16:48:14.753Z,6.68
2023-01-11T16:51:21.595Z,6.59
2023-01-11T16:54:28.985Z,6.52
2023-01-11T16:57:37.371Z,6.62
2023-01-11T17:00:40.479Z,6.45
2023-01-11T17:03:55.176Z,6.47
2023-01-11T17:07:19.831Z,6.36
2023-01-11T17:10:29.702Z,6.48
2023-01-11T17:13:53.558Z,6.51
2023-01-11T17:17:00.295Z,6.44
2023-01-11T17:20:04.399Z,6.31
2023-01-11T17:23:07.308Z,6.44
2023-01-11T17:26:16.488Z,6.46
2023-01-11T17:29:40.634Z,6.32
2023-01-11T17:32:47.420Z,6.31
2023-01-11T17:35:50.663Z,6.27
2023-01-11T17:38:55.686Z,6.20
2023-01-11T17:42:20.016Z,6.28
2023-01-11T17:45:25.442Z,6.15
2023-01-11T17:48:29.343Z,6.16
2023-01-11T17:51:35.025Z,6.16
2023-01-11T17:54:37.944Z,6.21
2023-01-11T17:57:41.347Z,6.12
2023-01-11T18:01:08.194Z,6.08
2023-01-11T18:04:19.236Z,6.10
2023-01-11T18:07:22.373Z,6.10
2023-01-11T18:10:28.673Z,6.14
2023-01-11T18:13:36.765Z,6.20
2023-01-11T18:16:59.578Z,6.14
2023-01-11T18:20:25.147Z,6.18
2023-01-11T18:23:28.061Z,6.19
2023-01-11T18:26:32.168Z,6.30
2023-01-11T18:29:38.339Z,6.35
2023-01-11T18:32:43.651Z,6.19
2023-01-11T18:35:52.447Z,6.26
2023-01-11T18:38:55.211Z,6.31
2023-01-11T18:42:07.481Z,6.07
2023-01-11T18:45:11.125Z,6.04
2023-01-11T18:48:15.140Z,5.99
2023-01-11T18:51:33.793Z,5.87
2023-01-11T18:54:37.303Z,6.02
2023-01-11T18:57:40.788Z,5.83
2023-01-11T19:00:45.443Z,5.78
2023-01-11T19:03:49.256Z,5.57
2023-01-11T19:06:53.602Z,5.45
2023-01-11T19:09:56.787Z,5.36
2023-01-11T19:13:01.178Z,5.19
2023-01-11T19:16:04.608Z,5.11
2023-01-11T19:19:07.431Z,5.10
2023-01-11T19:22:11.771Z,5.07
2023-01-11T19:25:14.963Z,4.88
2023-01-11T19:28:18.085Z,4.82
2023-01-11T19:31:21.050Z,4.64
2023-01-11T19:34:24.715Z,4.50
2023-01-11T19:37:28.589Z,4.40
2023-01-11T19:40:31.557Z,4.27
2023-01-11T19:43:35.980Z,4.12
2023-01-11T19:46:38.928Z,3.95
2023-01-11T19:49:42.546Z,3.76
2023-01-11T19:52:47.038Z,3.66
2023-01-11T19:55:49.853Z,3.53
2023-01-11T19:58:52.713Z,3.33
2023-01-11T20:01:55.572Z,3.27
2023-01-11T20:04:58.411Z,3.23
2023-01-11T20:08:01.543Z,3.22
2023-01-11T20:11:06.320Z,3.04
2023-01-11T20:14:09.173Z,2.97
2023-01-11T20:17:13.104Z,2.89
2023-01-11T20:20:17.007Z,2.81
2023-01-11T20:23:19.907Z,2.59
2023-01-11T20:26:23.042Z,2.44
2023-01-11T20:29:26.342Z,2.34
2023-01-11T20:32:41.065Z,2.24
2023-01-11T20:35:45.926Z,2.10
2023-01-11T20:38:49.409Z,2.22
2023-01-11T20:41:52.392Z,2.33
2023-01-11T20:44:55.332Z,2.30
2023-01-11T20:47:59.347Z,2.33
2023-01-11T20:51:03.615Z,2.20
2023-01-11T20:54:07.134Z,2.10
2023-01-11T20:57:12.913Z,1.95
2023-01-11T21:00:16.204Z,1.85
2023-01-11T21:03:20.348Z,1.77
2023-01-11T21:06:23.260Z,1.67
2023-01-11T21:09:26.160Z,1.57
2023-01-11T21:12:29.006Z,1.58
2023-01-11T21:15:31.799Z,1.49
2023-01-11T21:18:35.239Z,1.51
2023-01-11T21:21:38.212Z,1.41
2023-01-11T21:24:41.177Z,1.30
2023-01-11T21:27:44.009Z,1.20
2023-01-11T21:30:46.909Z,1.16
2023-01-11T21:33:50.566Z,1.16
2023-01-11T21:36:53.390Z,1.15
2023-01-11T21:39:56.298Z,1.02
2023-01-11T21:42:59.454Z,0.94
2023-01-11T21:46:03.275Z,0.95
2023-01-11T21:49:06.610Z,0.88
2023-01-11T21:52:10.099Z,0.87
2023-01-11T21:55:12.894Z,0.87
2023-01-11T21:58:18.588Z,0.94
2023-01-11T22:01:24.747Z,0.85
2023-01-11T22:04:27.780Z,0.79
2023-01-11T22:07:32.118Z,0.70
2023-01-11T22:10:35.416Z,0.68
2023-01-11T22:13:38.329Z,0.63
2023-01-11T22:16:41.240Z,0.50
2023-01-11T22:19:44.238Z,0.47
2023-01-11T22:22:47.158Z,0.41
2023-01-11T22:25:49.971Z,0.44
2023-01-11T22:29:13.067Z,0.40
2023-01-11T22:32:15.764Z,0.43
2023-01-11T22:35:18.841Z,0.33
2023-01-11T22:38:21.655Z,0.27
2023-01-11T22:41:26.404Z,0.10
2023-01-11T22:44:29.337Z,0.02
2023-01-11T22:47:32.425Z,0.20
2023-01-11T22:50:35.318Z,0.30
2023-01-11T22:53:43.455Z,0.27
2023-01-11T22:56:46.307Z,0.17
2023-01-11T22:59:49.134Z,0.09
2023-01-11T23:02:52.240Z,0.09
2023-01-11T23:05:55.201Z,-0.03
2023-01-11T23:08:59.193Z,-0.07
2023-01-11T23:12:21.652Z,-0.13
2023-01-11T23:15:24.375Z,-0.15
2023-01-11T23:18:27.289Z,-0.14
2023-01-11T23:21:30.368Z,-0.11
2023-01-11T23:24:37.052Z,-0.10
2023-01-11T23:27:40.003Z,-0.12
2023-01-11T23:30:42.848Z,-0.10
2023-01-11T23:33:47.279Z,-0.07
2023-01-11T23:36:50.145Z,-0.08
2023-01-11T23:39:53.087Z,0.00
2023-01-11T23:42:55.808Z,0.04
2023-01-11T23:46:23.743Z,-0.01
2023-01-11T23:49:27.784Z,-0.13
2023-01-11T23:52:32.939Z,-0.26
2023-01-11T23:55:35.839Z,-0.28
2023-01-11T23:58:39.036Z,-0.21
